sensor_id;sensor_type;location;lat;lon;timestamp;P1;durP1;ratioP1;P2;durP2;ratioP2
9948;SDS011;5013;51.840;8.276;2023-05-10T00:00:11;15.47;;;14.00;;
9948;SDS011;5013;51.840;8.276;2023-05-10T00:02:38;15.27;;;13.67;;
9948;SDS011;5013;51.840;8.276;2023-05-10T00:05:03;14.77;;;13.57;;
9948;SDS011;5013;51.840;8.276;2023-05-10T00:07:30;15.40;;;13.97;;
9948;SDS011;5013;51.840;8.276;2023-05-10T00:09:55;15.17;;;13.67;;
9948;SDS011;5013;51.840;8.276;2023-05-10T00:12:21;14.27;;;12.83;;
9948;SDS011;5013;51.840;8.276;2023-05-10T00:14:46;15.50;;;14.00;;
9948;SDS011;5013;51.840;8.276;2023-05-10T00:17:12;15.43;;;13.90;;
9948;SDS011;5013;51.840;8.276;2023-05-10T00:19:38;15.87;;;14.37;;
9948;SDS011;5013;51.840;8.276;2023-05-10T00:22:03;15.93;;;14.50;;
9948;SDS011;5013;51.840;8.276;2023-05-10T00:24:29;15.37;;;13.97;;
9948;SDS011;5013;51.840;8.276;2023-05-10T00:26:54;16.57;;;14.87;;
9948;SDS011;5013;51.840;8.276;2023-05-10T00:29:20;17.83;;;16.13;;
9948;SDS011;5013;51.840;8.276;2023-05-10T00:31:45;18.73;;;16.83;;
9948;SDS011;5013;51.840;8.276;2023-05-10T00:34:11;15.90;;;14.33;;
9948;SDS011;5013;51.840;8.276;2023-05-10T00:36:37;15.53;;;14.07;;
9948;SDS011;5013;51.840;8.276;2023-05-10T00:39:02;16.60;;;15.10;;
9948;SDS011;5013;51.840;8.276;2023-05-10T00:41:28;16.77;;;15.07;;
9948;SDS011;5013;51.840;8.276;2023-05-10T00:43:57;16.57;;;15.03;;
9948;SDS011;5013;51.840;8.276;2023-05-10T00:46:22;16.77;;;15.27;;
9948;SDS011;5013;51.840;8.276;2023-05-10T00:48:48;18.70;;;16.80;;
9948;SDS011;5013;51.840;8.276;2023-05-10T00:51:14;17.30;;;15.70;;
9948;SDS011;5013;51.840;8.276;2023-05-10T00:53:40;16.73;;;15.13;;
9948;SDS011;5013;51.840;8.276;2023-05-10T00:56:06;17.03;;;15.40;;
9948;SDS011;5013;51.840;8.276;2023-05-10T00:58:32;17.53;;;15.83;;
9948;SDS011;5013;51.840;8.276;2023-05-10T01:00:58;17.20;;;15.70;;
9948;SDS011;5013;51.840;8.276;2023-05-10T01:03:24;16.43;;;14.83;;
9948;SDS011;5013;51.840;8.276;2023-05-10T01:05:52;18.73;;;16.83;;
9948;SDS011;5013;51.840;8.276;2023-05-10T01:08:17;20.77;;;18.57;;
9948;SDS011;5013;51.840;8.276;2023-05-10T01:10:43;18.37;;;16.57;;
9948;SDS011;5013;51.840;8.276;2023-05-10T01:13:09;17.03;;;15.40;;
9948;SDS011;5013;51.840;8.276;2023-05-10T01:15:36;16.03;;;14.53;;
9948;SDS011;5013;51.840;8.276;2023-05-10T01:18:02;17.07;;;15.50;;
9948;SDS011;5013;51.840;8.276;2023-05-10T01:20:30;19.43;;;14.73;;
9948;SDS011;5013;51.840;8.276;2023-05-10T01:29:42;10.80;;;9.90;;
9948;SDS011;5013;51.840;8.276;2023-05-10T01:37:30;9.70;;;8.87;;
9948;SDS011;5013;51.840;8.276;2023-05-10T01:40:26;10.57;;;7.90;;
9948;SDS011;5013;51.840;8.276;2023-05-10T01:43:01;7.00;;;6.43;;
9948;SDS011;5013;51.840;8.276;2023-05-10T01:45:41;5.60;;;5.30;;
9948;SDS011;5013;51.840;8.276;2023-05-10T01:48:40;4.80;;;4.40;;
9948;SDS011;5013;51.840;8.276;2023-05-10T01:51:16;5.00;;;4.70;;
9948;SDS011;5013;51.840;8.276;2023-05-10T01:53:47;4.90;;;4.50;;
9948;SDS011;5013;51.840;8.276;2023-05-10T01:56:14;4.50;;;4.20;;
9948;SDS011;5013;51.840;8.276;2023-05-10T01:58:42;4.47;;;4.17;;
9948;SDS011;5013;51.840;8.276;2023-05-10T02:01:10;5.13;;;4.70;;
9948;SDS011;5013;51.840;8.276;2023-05-10T02:03:37;6.17;;;5.13;;
9948;SDS011;5013;51.840;8.276;2023-05-10T02:06:04;11.23;;;10.07;;
9948;SDS011;5013;51.840;8.276;2023-05-10T02:08:31;8.93;;;7.93;;
9948;SDS011;5013;51.840;8.276;2023-05-10T02:11:00;11.87;;;10.10;;
9948;SDS011;5013;51.840;8.276;2023-05-10T02:13:27;13.70;;;11.70;;
9948;SDS011;5013;51.840;8.276;2023-05-10T02:15:54;15.63;;;13.30;;
9948;SDS011;5013;51.840;8.276;2023-05-10T02:18:22;20.97;;;15.97;;
9948;SDS011;5013;51.840;8.276;2023-05-10T02:20:49;21.97;;;16.60;;
9948;SDS011;5013;51.840;8.276;2023-05-10T02:23:16;24.80;;;17.83;;
9948;SDS011;5013;51.840;8.276;2023-05-10T02:25:43;25.07;;;19.00;;
9948;SDS011;5013;51.840;8.276;2023-05-10T02:28:09;24.77;;;18.40;;
9948;SDS011;5013;51.840;8.276;2023-05-10T02:30:36;20.63;;;17.30;;
9948;SDS011;5013;51.840;8.276;2023-05-10T02:33:04;21.20;;;16.90;;
9948;SDS011;5013;51.840;8.276;2023-05-10T02:35:31;19.10;;;16.00;;
9948;SDS011;5013;51.840;8.276;2023-05-10T02:37:58;22.57;;;16.97;;
9948;SDS011;5013;51.840;8.276;2023-05-10T02:40:25;21.53;;;17.30;;
9948;SDS011;5013;51.840;8.276;2023-05-10T02:42:52;16.73;;;14.87;;
9948;SDS011;5013;51.840;8.276;2023-05-10T02:45:22;16.40;;;13.87;;
9948;SDS011;5013;51.840;8.276;2023-05-10T02:47:51;18.13;;;12.87;;
9948;SDS011;5013;51.840;8.276;2023-05-10T02:50:17;15.50;;;12.90;;
9948;SDS011;5013;51.840;8.276;2023-05-10T02:52:47;19.30;;;14.33;;
9948;SDS011;5013;51.840;8.276;2023-05-10T02:55:16;15.73;;;13.80;;
9948;SDS011;5013;51.840;8.276;2023-05-10T02:57:49;18.10;;;14.70;;
9948;SDS011;5013;51.840;8.276;2023-05-10T03:00:19;18.03;;;13.83;;
9948;SDS011;5013;51.840;8.276;2023-05-10T03:02:45;16.23;;;14.30;;
9948;SDS011;5013;51.840;8.276;2023-05-10T03:05:10;18.40;;;15.40;;
9948;SDS011;5013;51.840;8.276;2023-05-10T03:07:36;19.60;;;15.43;;
9948;SDS011;5013;51.840;8.276;2023-05-10T03:10:02;16.93;;;15.13;;
9948;SDS011;5013;51.840;8.276;2023-05-10T03:18:11;13.53;;;11.87;;
9948;SDS011;5013;51.840;8.276;2023-05-10T03:20:47;13.67;;;12.30;;
9948;SDS011;5013;51.840;8.276;2023-05-10T03:25:43;7.20;;;6.57;;
9948;SDS011;5013;51.840;8.276;2023-05-10T03:28:11;9.37;;;6.80;;
9948;SDS011;5013;51.840;8.276;2023-05-10T03:30:37;5.73;;;5.33;;
9948;SDS011;5013;51.840;8.276;2023-05-10T03:33:04;5.90;;;4.97;;
9948;SDS011;5013;51.840;8.276;2023-05-10T03:35:33;4.33;;;3.53;;
9948;SDS011;5013;51.840;8.276;2023-05-10T03:37:59;3.77;;;3.57;;
9948;SDS011;5013;51.840;8.276;2023-05-10T03:40:26;2.57;;;2.47;;
9948;SDS011;5013;51.840;8.276;2023-05-10T03:42:54;2.10;;;2.00;;
9948;SDS011;5013;51.840;8.276;2023-05-10T03:45:20;2.10;;;2.00;;
9948;SDS011;5013;51.840;8.276;2023-05-10T03:47:45;2.10;;;2.03;;
9948;SDS011;5013;51.840;8.276;2023-05-10T03:50:11;2.60;;;2.40;;
9948;SDS011;5013;51.840;8.276;2023-05-10T03:52:37;2.50;;;2.43;;
9948;SDS011;5013;51.840;8.276;2023-05-10T03:55:04;2.40;;;2.30;;
9948;SDS011;5013;51.840;8.276;2023-05-10T03:57:30;3.83;;;2.90;;
9948;SDS011;5013;51.840;8.276;2023-05-10T03:59:56;2.90;;;2.60;;
9948;SDS011;5013;51.840;8.276;2023-05-10T04:02:21;4.77;;;2.90;;
9948;SDS011;5013;51.840;8.276;2023-05-10T04:04:47;3.03;;;2.83;;
9948;SDS011;5013;51.840;8.276;2023-05-10T04:07:13;3.90;;;3.60;;
9948;SDS011;5013;51.840;8.276;2023-05-10T04:09:39;7.03;;;4.00;;
9948;SDS011;5013;51.840;8.276;2023-05-10T04:12:04;4.00;;;3.80;;
9948;SDS011;5013;51.840;8.276;2023-05-10T04:14:30;4.20;;;3.80;;
9948;SDS011;5013;51.840;8.276;2023-05-10T04:16:56;4.07;;;3.80;;
9948;SDS011;5013;51.840;8.276;2023-05-10T04:19:22;3.87;;;3.77;;
9948;SDS011;5013;51.840;8.276;2023-05-10T04:21:47;3.53;;;3.43;;
9948;SDS011;5013;51.840;8.276;2023-05-10T04:24:13;4.10;;;3.77;;
9948;SDS011;5013;51.840;8.276;2023-05-10T04:26:38;4.80;;;3.77;;
9948;SDS011;5013;51.840;8.276;2023-05-10T04:29:04;4.73;;;4.43;;
9948;SDS011;5013;51.840;8.276;2023-05-10T04:31:29;4.30;;;4.10;;
9948;SDS011;5013;51.840;8.276;2023-05-10T04:33:55;4.73;;;4.43;;
9948;SDS011;5013;51.840;8.276;2023-05-10T04:36:21;4.77;;;4.43;;
9948;SDS011;5013;51.840;8.276;2023-05-10T04:38:46;5.30;;;4.90;;
9948;SDS011;5013;51.840;8.276;2023-05-10T04:41:12;8.67;;;7.27;;
9948;SDS011;5013;51.840;8.276;2023-05-10T04:43:38;8.70;;;7.80;;
9948;SDS011;5013;51.840;8.276;2023-05-10T04:46:04;8.00;;;7.30;;
9948;SDS011;5013;51.840;8.276;2023-05-10T04:48:30;10.00;;;9.03;;
9948;SDS011;5013;51.840;8.276;2023-05-10T04:50:55;10.43;;;9.43;;
9948;SDS011;5013;51.840;8.276;2023-05-10T04:53:21;12.10;;;9.90;;
9948;SDS011;5013;51.840;8.276;2023-05-10T04:55:47;11.80;;;10.10;;
9948;SDS011;5013;51.840;8.276;2023-05-10T04:58:13;12.27;;;10.47;;
9948;SDS011;5013;51.840;8.276;2023-05-10T05:00:38;11.07;;;8.70;;
9948;SDS011;5013;51.840;8.276;2023-05-10T05:03:04;11.83;;;9.77;;
9948;SDS011;5013;51.840;8.276;2023-05-10T05:05:30;9.10;;;8.20;;
9948;SDS011;5013;51.840;8.276;2023-05-10T05:07:55;7.73;;;6.93;;
9948;SDS011;5013;51.840;8.276;2023-05-10T05:10:21;6.93;;;6.37;;
9948;SDS011;5013;51.840;8.276;2023-05-10T05:12:47;7.43;;;6.83;;
9948;SDS011;5013;51.840;8.276;2023-05-10T05:15:12;7.13;;;6.43;;
9948;SDS011;5013;51.840;8.276;2023-05-10T05:17:38;8.97;;;6.20;;
9948;SDS011;5013;51.840;8.276;2023-05-10T05:20:03;10.83;;;6.43;;
9948;SDS011;5013;51.840;8.276;2023-05-10T05:22:30;9.80;;;5.83;;
9948;SDS011;5013;51.840;8.276;2023-05-10T05:24:55;10.23;;;5.77;;
9948;SDS011;5013;51.840;8.276;2023-05-10T05:27:23;13.33;;;6.70;;
9948;SDS011;5013;51.840;8.276;2023-05-10T05:29:54;11.10;;;6.33;;
9948;SDS011;5013;51.840;8.276;2023-05-10T05:32:20;9.77;;;6.07;;
9948;SDS011;5013;51.840;8.276;2023-05-10T05:34:46;12.83;;;5.87;;
9948;SDS011;5013;51.840;8.276;2023-05-10T05:37:12;9.70;;;5.13;;
9948;SDS011;5013;51.840;8.276;2023-05-10T05:39:39;7.97;;;5.00;;
9948;SDS011;5013;51.840;8.276;2023-05-10T05:42:04;8.50;;;4.80;;
9948;SDS011;5013;51.840;8.276;2023-05-10T05:44:30;7.07;;;4.30;;
9948;SDS011;5013;51.840;8.276;2023-05-10T05:46:56;5.20;;;3.80;;
9948;SDS011;5013;51.840;8.276;2023-05-10T05:49:21;4.50;;;4.03;;
9948;SDS011;5013;51.840;8.276;2023-05-10T05:51:47;5.60;;;4.17;;
9948;SDS011;5013;51.840;8.276;2023-05-10T05:54:14;5.10;;;4.60;;
9948;SDS011;5013;51.840;8.276;2023-05-10T05:56:40;5.47;;;4.07;;
9948;SDS011;5013;51.840;8.276;2023-05-10T05:59:05;6.67;;;4.47;;
9948;SDS011;5013;51.840;8.276;2023-05-10T06:01:31;9.17;;;5.40;;
9948;SDS011;5013;51.840;8.276;2023-05-10T06:03:56;5.30;;;4.90;;
9948;SDS011;5013;51.840;8.276;2023-05-10T06:06:22;6.03;;;5.43;;
9948;SDS011;5013;51.840;8.276;2023-05-10T06:08:47;6.63;;;5.43;;
9948;SDS011;5013;51.840;8.276;2023-05-10T06:11:13;9.20;;;5.33;;
9948;SDS011;5013;51.840;8.276;2023-05-10T06:13:39;5.67;;;5.13;;
9948;SDS011;5013;51.840;8.276;2023-05-10T06:16:04;5.80;;;5.10;;
9948;SDS011;5013;51.840;8.276;2023-05-10T06:18:30;5.20;;;4.70;;
9948;SDS011;5013;51.840;8.276;2023-05-10T06:20:56;6.07;;;5.30;;
9948;SDS011;5013;51.840;8.276;2023-05-10T06:23:22;5.60;;;5.10;;
9948;SDS011;5013;51.840;8.276;2023-05-10T06:25:48;5.97;;;5.37;;
9948;SDS011;5013;51.840;8.276;2023-05-10T06:28:13;5.83;;;5.43;;
9948;SDS011;5013;51.840;8.276;2023-05-10T06:30:39;6.40;;;5.03;;
9948;SDS011;5013;51.840;8.276;2023-05-10T06:33:04;6.33;;;5.77;;
9948;SDS011;5013;51.840;8.276;2023-05-10T06:35:30;9.43;;;6.20;;
9948;SDS011;5013;51.840;8.276;2023-05-10T06:37:58;6.87;;;5.80;;
9948;SDS011;5013;51.840;8.276;2023-05-10T06:40:23;7.00;;;6.40;;
9948;SDS011;5013;51.840;8.276;2023-05-10T06:42:49;7.73;;;7.03;;
9948;SDS011;5013;51.840;8.276;2023-05-10T06:45:15;9.13;;;8.33;;
9948;SDS011;5013;51.840;8.276;2023-05-10T06:47:41;9.53;;;7.67;;
9948;SDS011;5013;51.840;8.276;2023-05-10T06:50:07;10.10;;;8.53;;
9948;SDS011;5013;51.840;8.276;2023-05-10T06:52:34;9.57;;;8.47;;
9948;SDS011;5013;51.840;8.276;2023-05-10T06:54:59;8.60;;;7.90;;
9948;SDS011;5013;51.840;8.276;2023-05-10T06:57:25;13.90;;;10.73;;
9948;SDS011;5013;51.840;8.276;2023-05-10T06:59:51;11.87;;;9.57;;
9948;SDS011;5013;51.840;8.276;2023-05-10T07:02:17;12.53;;;9.67;;
9948;SDS011;5013;51.840;8.276;2023-05-10T07:04:43;15.37;;;12.73;;
9948;SDS011;5013;51.840;8.276;2023-05-10T07:07:08;16.23;;;13.40;;
9948;SDS011;5013;51.840;8.276;2023-05-10T07:09:34;17.23;;;14.60;;
9948;SDS011;5013;51.840;8.276;2023-05-10T07:12:00;21.80;;;14.97;;
9948;SDS011;5013;51.840;8.276;2023-05-10T07:14:26;22.23;;;14.77;;
9948;SDS011;5013;51.840;8.276;2023-05-10T07:16:52;20.57;;;15.73;;
9948;SDS011;5013;51.840;8.276;2023-05-10T07:19:18;18.40;;;15.30;;
9948;SDS011;5013;51.840;8.276;2023-05-10T07:21:44;24.20;;;16.77;;
9948;SDS011;5013;51.840;8.276;2023-05-10T07:24:10;29.77;;;18.70;;
9948;SDS011;5013;51.840;8.276;2023-05-10T07:26:35;21.33;;;17.07;;
9948;SDS011;5013;51.840;8.276;2023-05-10T07:29:01;22.63;;;18.20;;
9948;SDS011;5013;51.840;8.276;2023-05-10T07:31:27;19.80;;;16.93;;
9948;SDS011;5013;51.840;8.276;2023-05-10T07:33:53;21.80;;;17.73;;
9948;SDS011;5013;51.840;8.276;2023-05-10T07:36:18;19.73;;;16.97;;
9948;SDS011;5013;51.840;8.276;2023-05-10T07:38:44;21.47;;;17.70;;
9948;SDS011;5013;51.840;8.276;2023-05-10T07:41:11;23.93;;;18.43;;
9948;SDS011;5013;51.840;8.276;2023-05-10T07:43:36;21.20;;;18.57;;
9948;SDS011;5013;51.840;8.276;2023-05-10T07:46:02;19.20;;;16.10;;
9948;SDS011;5013;51.840;8.276;2023-05-10T07:48:27;22.43;;;17.97;;
9948;SDS011;5013;51.840;8.276;2023-05-10T07:50:53;22.07;;;18.13;;
9948;SDS011;5013;51.840;8.276;2023-05-10T07:53:19;20.00;;;16.30;;
9948;SDS011;5013;51.840;8.276;2023-05-10T07:55:49;23.03;;;18.93;;
9948;SDS011;5013;51.840;8.276;2023-05-10T07:58:15;23.77;;;19.07;;
9948;SDS011;5013;51.840;8.276;2023-05-10T08:00:41;20.77;;;17.70;;
9948;SDS011;5013;51.840;8.276;2023-05-10T08:03:06;17.23;;;15.37;;
9948;SDS011;5013;51.840;8.276;2023-05-10T08:05:32;17.63;;;15.80;;
9948;SDS011;5013;51.840;8.276;2023-05-10T08:07:58;19.50;;;16.23;;
9948;SDS011;5013;51.840;8.276;2023-05-10T08:10:24;18.80;;;16.40;;
9948;SDS011;5013;51.840;8.276;2023-05-10T08:12:50;19.90;;;17.80;;
9948;SDS011;5013;51.840;8.276;2023-05-10T08:15:16;21.50;;;17.83;;
9948;SDS011;5013;51.840;8.276;2023-05-10T08:17:41;23.70;;;19.47;;
9948;SDS011;5013;51.840;8.276;2023-05-10T08:20:08;19.10;;;16.63;;
9948;SDS011;5013;51.840;8.276;2023-05-10T08:22:34;22.63;;;20.20;;
9948;SDS011;5013;51.840;8.276;2023-05-10T08:24:59;28.43;;;21.93;;
9948;SDS011;5013;51.840;8.276;2023-05-10T08:27:25;22.33;;;19.43;;
9948;SDS011;5013;51.840;8.276;2023-05-10T08:29:50;23.17;;;20.00;;
9948;SDS011;5013;51.840;8.276;2023-05-10T08:32:16;25.50;;;21.73;;
9948;SDS011;5013;51.840;8.276;2023-05-10T08:34:42;28.80;;;23.47;;
9948;SDS011;5013;51.840;8.276;2023-05-10T08:37:08;31.33;;;23.30;;
9948;SDS011;5013;51.840;8.276;2023-05-10T08:39:35;29.00;;;24.17;;
9948;SDS011;5013;51.840;8.276;2023-05-10T08:42:01;29.13;;;24.53;;
9948;SDS011;5013;51.840;8.276;2023-05-10T08:44:29;29.07;;;23.60;;
9948;SDS011;5013;51.840;8.276;2023-05-10T08:47:00;30.20;;;24.00;;
9948;SDS011;5013;51.840;8.276;2023-05-10T08:49:30;30.17;;;23.40;;
9948;SDS011;5013;51.840;8.276;2023-05-10T08:51:56;31.53;;;25.03;;
9948;SDS011;5013;51.840;8.276;2023-05-10T08:54:24;29.83;;;23.90;;
9948;SDS011;5013;51.840;8.276;2023-05-10T08:56:50;28.90;;;23.67;;
9948;SDS011;5013;51.840;8.276;2023-05-10T08:59:15;30.93;;;23.93;;
9948;SDS011;5013;51.840;8.276;2023-05-10T09:01:42;28.80;;;22.83;;
9948;SDS011;5013;51.840;8.276;2023-05-10T09:04:09;27.43;;;24.20;;
9948;SDS011;5013;51.840;8.276;2023-05-10T09:06:34;30.60;;;23.43;;
9948;SDS011;5013;51.840;8.276;2023-05-10T09:09:01;28.83;;;23.13;;
9948;SDS011;5013;51.840;8.276;2023-05-10T09:11:28;27.13;;;22.93;;
9948;SDS011;5013;51.840;8.276;2023-05-10T09:13:55;27.73;;;21.57;;
9948;SDS011;5013;51.840;8.276;2023-05-10T09:16:21;29.77;;;21.87;;
9948;SDS011;5013;51.840;8.276;2023-05-10T09:18:47;27.60;;;21.33;;
9948;SDS011;5013;51.840;8.276;2023-05-10T09:21:14;26.57;;;20.70;;
9948;SDS011;5013;51.840;8.276;2023-05-10T09:23:42;24.43;;;20.50;;
9948;SDS011;5013;51.840;8.276;2023-05-10T09:26:11;26.27;;;21.50;;
9948;SDS011;5013;51.840;8.276;2023-05-10T09:28:51;28.17;;;21.07;;
9948;SDS011;5013;51.840;8.276;2023-05-10T09:31:18;24.87;;;19.60;;
9948;SDS011;5013;51.840;8.276;2023-05-10T09:33:44;25.30;;;19.17;;
9948;SDS011;5013;51.840;8.276;2023-05-10T09:36:11;21.77;;;18.97;;
9948;SDS011;5013;51.840;8.276;2023-05-10T09:41:19;21.83;;;18.00;;
9948;SDS011;5013;51.840;8.276;2023-05-10T09:43:49;23.87;;;19.27;;
9948;SDS011;5013;51.840;8.276;2023-05-10T09:46:15;20.70;;;18.23;;
9948;SDS011;5013;51.840;8.276;2023-05-10T09:48:42;20.80;;;17.50;;
9948;SDS011;5013;51.840;8.276;2023-05-10T09:51:09;19.33;;;15.80;;
9948;SDS011;5013;51.840;8.276;2023-05-10T09:53:35;18.03;;;14.00;;
9948;SDS011;5013;51.840;8.276;2023-05-10T09:56:00;18.93;;;14.13;;
9948;SDS011;5013;51.840;8.276;2023-05-10T09:58:26;15.77;;;13.13;;
9948;SDS011;5013;51.840;8.276;2023-05-10T10:00:51;15.77;;;11.43;;
9948;SDS011;5013;51.840;8.276;2023-05-10T10:03:19;15.67;;;11.60;;
9948;SDS011;5013;51.840;8.276;2023-05-10T10:05:46;13.63;;;12.20;;
9948;SDS011;5013;51.840;8.276;2023-05-10T10:08:12;15.27;;;12.57;;
9948;SDS011;5013;51.840;8.276;2023-05-10T10:10:39;15.60;;;12.20;;
9948;SDS011;5013;51.840;8.276;2023-05-10T10:13:11;13.90;;;11.70;;
9948;SDS011;5013;51.840;8.276;2023-05-10T10:15:37;11.43;;;10.20;;
9948;SDS011;5013;51.840;8.276;2023-05-10T10:18:03;13.07;;;11.67;;
9948;SDS011;5013;51.840;8.276;2023-05-10T10:20:30;12.20;;;11.00;;
9948;SDS011;5013;51.840;8.276;2023-05-10T10:22:56;11.17;;;9.87;;
9948;SDS011;5013;51.840;8.276;2023-05-10T10:25:22;12.60;;;11.30;;
9948;SDS011;5013;51.840;8.276;2023-05-10T10:30:32;19.17;;;12.87;;
9948;SDS011;5013;51.840;8.276;2023-05-10T10:35:29;9.73;;;8.73;;
9948;SDS011;5013;51.840;8.276;2023-05-10T10:37:56;8.33;;;7.53;;
9948;SDS011;5013;51.840;8.276;2023-05-10T10:40:32;12.80;;;10.20;;
9948;SDS011;5013;51.840;8.276;2023-05-10T10:43:21;13.33;;;10.47;;
9948;SDS011;5013;51.840;8.276;2023-05-10T10:48:35;11.90;;;10.60;;
9948;SDS011;5013;51.840;8.276;2023-05-10T10:51:00;12.33;;;11.03;;
9948;SDS011;5013;51.840;8.276;2023-05-10T10:53:27;8.73;;;7.83;;
9948;SDS011;5013;51.840;8.276;2023-05-10T10:56:14;3.63;;;3.43;;
9948;SDS011;5013;51.840;8.276;2023-05-10T10:58:40;3.10;;;2.90;;
9948;SDS011;5013;51.840;8.276;2023-05-10T11:01:14;4.17;;;3.40;;
9948;SDS011;5013;51.840;8.276;2023-05-10T11:03:54;4.43;;;4.10;;
9948;SDS011;5013;51.840;8.276;2023-05-10T11:06:32;5.17;;;4.67;;
9948;SDS011;5013;51.840;8.276;2023-05-10T11:09:05;6.47;;;5.10;;
9948;SDS011;5013;51.840;8.276;2023-05-10T11:11:35;7.70;;;7.00;;
9948;SDS011;5013;51.840;8.276;2023-05-10T11:14:13;9.83;;;8.83;;
9948;SDS011;5013;51.840;8.276;2023-05-10T11:16:42;11.00;;;9.03;;
9948;SDS011;5013;51.840;8.276;2023-05-10T11:19:12;11.43;;;10.33;;
9948;SDS011;5013;51.840;8.276;2023-05-10T11:21:48;11.40;;;9.80;;
9948;SDS011;5013;51.840;8.276;2023-05-10T11:24:15;11.87;;;10.07;;
9948;SDS011;5013;51.840;8.276;2023-05-10T11:26:46;12.60;;;10.67;;
9948;SDS011;5013;51.840;8.276;2023-05-10T11:29:15;14.23;;;11.70;;
9948;SDS011;5013;51.840;8.276;2023-05-10T11:31:44;18.60;;;13.70;;
9948;SDS011;5013;51.840;8.276;2023-05-10T11:34:11;19.30;;;15.23;;
9948;SDS011;5013;51.840;8.276;2023-05-10T11:36:50;16.70;;;14.97;;
9948;SDS011;5013;51.840;8.276;2023-05-10T11:39:18;16.87;;;15.17;;
9948;SDS011;5013;51.840;8.276;2023-05-10T11:41:46;18.23;;;15.50;;
9948;SDS011;5013;51.840;8.276;2023-05-10T11:44:13;17.27;;;15.47;;
9948;SDS011;5013;51.840;8.276;2023-05-10T11:46:39;19.40;;;16.60;;
9948;SDS011;5013;51.840;8.276;2023-05-10T11:49:05;21.93;;;16.23;;
9948;SDS011;5013;51.840;8.276;2023-05-10T11:51:33;18.77;;;14.80;;
9948;SDS011;5013;51.840;8.276;2023-05-10T11:54:00;18.97;;;13.73;;
9948;SDS011;5013;51.840;8.276;2023-05-10T11:56:30;21.10;;;14.90;;
9948;SDS011;5013;51.840;8.276;2023-05-10T11:58:57;17.77;;;14.53;;
9948;SDS011;5013;51.840;8.276;2023-05-10T12:01:25;16.40;;;14.63;;
9948;SDS011;5013;51.840;8.276;2023-05-10T12:03:52;23.43;;;16.73;;
9948;SDS011;5013;51.840;8.276;2023-05-10T12:06:19;18.60;;;15.43;;
9948;SDS011;5013;51.840;8.276;2023-05-10T12:08:46;22.70;;;14.63;;
9948;SDS011;5013;51.840;8.276;2023-05-10T12:11:13;21.20;;;15.83;;
9948;SDS011;5013;51.840;8.276;2023-05-10T12:13:40;24.30;;;16.80;;
9948;SDS011;5013;51.840;8.276;2023-05-10T12:18:39;17.90;;;13.77;;
9948;SDS011;5013;51.840;8.276;2023-05-10T12:21:05;17.40;;;14.80;;
9948;SDS011;5013;51.840;8.276;2023-05-10T12:23:31;20.40;;;14.93;;
9948;SDS011;5013;51.840;8.276;2023-05-10T12:26:01;20.33;;;14.97;;
9948;SDS011;5013;51.840;8.276;2023-05-10T12:28:29;19.20;;;15.03;;
9948;SDS011;5013;51.840;8.276;2023-05-10T12:30:56;21.40;;;16.27;;
9948;SDS011;5013;51.840;8.276;2023-05-10T12:33:23;18.67;;;14.63;;
9948;SDS011;5013;51.840;8.276;2023-05-10T12:35:49;19.27;;;15.23;;
9948;SDS011;5013;51.840;8.276;2023-05-10T12:38:23;18.30;;;12.40;;
9948;SDS011;5013;51.840;8.276;2023-05-10T12:40:58;17.77;;;13.30;;
9948;SDS011;5013;51.840;8.276;2023-05-10T12:43:25;18.53;;;14.67;;
9948;SDS011;5013;51.840;8.276;2023-05-10T12:45:51;17.87;;;14.33;;
9948;SDS011;5013;51.840;8.276;2023-05-10T12:48:16;19.17;;;15.33;;
9948;SDS011;5013;51.840;8.276;2023-05-10T12:50:42;20.60;;;16.40;;
9948;SDS011;5013;51.840;8.276;2023-05-10T12:53:08;21.53;;;16.13;;
9948;SDS011;5013;51.840;8.276;2023-05-10T12:55:33;25.33;;;17.50;;
9948;SDS011;5013;51.840;8.276;2023-05-10T12:57:59;31.70;;;20.53;;
9948;SDS011;5013;51.840;8.276;2023-05-10T13:00:25;28.00;;;19.17;;
9948;SDS011;5013;51.840;8.276;2023-05-10T13:02:50;24.63;;;17.87;;
9948;SDS011;5013;51.840;8.276;2023-05-10T13:05:17;28.43;;;20.87;;
9948;SDS011;5013;51.840;8.276;2023-05-10T13:07:42;25.27;;;18.60;;
9948;SDS011;5013;51.840;8.276;2023-05-10T13:10:09;29.67;;;19.70;;
9948;SDS011;5013;51.840;8.276;2023-05-10T13:12:34;29.27;;;20.83;;
9948;SDS011;5013;51.840;8.276;2023-05-10T13:15:01;28.20;;;20.90;;
9948;SDS011;5013;51.840;8.276;2023-05-10T13:17:27;25.90;;;20.70;;
9948;SDS011;5013;51.840;8.276;2023-05-10T13:19:53;30.87;;;22.03;;
9948;SDS011;5013;51.840;8.276;2023-05-10T13:22:19;28.73;;;22.93;;
9948;SDS011;5013;51.840;8.276;2023-05-10T13:24:44;29.87;;;23.63;;
9948;SDS011;5013;51.840;8.276;2023-05-10T13:27:10;31.40;;;24.83;;
9948;SDS011;5013;51.840;8.276;2023-05-10T13:29:36;30.57;;;22.73;;
9948;SDS011;5013;51.840;8.276;2023-05-10T13:32:01;29.30;;;23.07;;
9948;SDS011;5013;51.840;8.276;2023-05-10T13:34:27;27.57;;;21.13;;
9948;SDS011;5013;51.840;8.276;2023-05-10T13:36:53;29.93;;;22.37;;
9948;SDS011;5013;51.840;8.276;2023-05-10T13:39:19;27.73;;;21.33;;
9948;SDS011;5013;51.840;8.276;2023-05-10T13:41:45;28.93;;;23.37;;
9948;SDS011;5013;51.840;8.276;2023-05-10T13:44:12;29.97;;;21.93;;
9948;SDS011;5013;51.840;8.276;2023-05-10T13:46:39;28.37;;;23.13;;
9948;SDS011;5013;51.840;8.276;2023-05-10T13:49:05;34.07;;;23.73;;
9948;SDS011;5013;51.840;8.276;2023-05-10T13:51:31;28.57;;;22.57;;
9948;SDS011;5013;51.840;8.276;2023-05-10T13:53:56;31.13;;;23.87;;
9948;SDS011;5013;51.840;8.276;2023-05-10T13:56:22;33.73;;;23.90;;
9948;SDS011;5013;51.840;8.276;2023-05-10T13:58:48;31.43;;;23.60;;
9948;SDS011;5013;51.840;8.276;2023-05-10T14:01:14;31.17;;;22.77;;
9948;SDS011;5013;51.840;8.276;2023-05-10T14:03:39;30.57;;;22.40;;
9948;SDS011;5013;51.840;8.276;2023-05-10T14:06:05;30.57;;;23.17;;
9948;SDS011;5013;51.840;8.276;2023-05-10T14:08:32;27.93;;;22.60;;
9948;SDS011;5013;51.840;8.276;2023-05-10T14:10:58;35.97;;;25.40;;
9948;SDS011;5013;51.840;8.276;2023-05-10T14:13:23;31.83;;;26.13;;
9948;SDS011;5013;51.840;8.276;2023-05-10T14:15:49;31.67;;;25.37;;
9948;SDS011;5013;51.840;8.276;2023-05-10T14:18:15;35.10;;;26.90;;
9948;SDS011;5013;51.840;8.276;2023-05-10T14:20:41;31.77;;;26.17;;
9948;SDS011;5013;51.840;8.276;2023-05-10T14:23:06;34.00;;;27.37;;
9948;SDS011;5013;51.840;8.276;2023-05-10T14:25:32;34.93;;;27.13;;
9948;SDS011;5013;51.840;8.276;2023-05-10T14:27:58;30.23;;;24.27;;
9948;SDS011;5013;51.840;8.276;2023-05-10T14:30:23;27.10;;;24.20;;
9948;SDS011;5013;51.840;8.276;2023-05-10T14:32:49;36.50;;;26.00;;
9948;SDS011;5013;51.840;8.276;2023-05-10T14:35:15;26.03;;;22.27;;
9948;SDS011;5013;51.840;8.276;2023-05-10T14:37:40;26.37;;;21.60;;
9948;SDS011;5013;51.840;8.276;2023-05-10T14:40:06;30.63;;;23.60;;
9948;SDS011;5013;51.840;8.276;2023-05-10T14:42:32;26.80;;;21.20;;
9948;SDS011;5013;51.840;8.276;2023-05-10T14:44:57;28.80;;;22.67;;
9948;SDS011;5013;51.840;8.276;2023-05-10T14:47:23;27.87;;;21.53;;
9948;SDS011;5013;51.840;8.276;2023-05-10T14:49:48;27.73;;;21.80;;
9948;SDS011;5013;51.840;8.276;2023-05-10T14:52:14;27.07;;;22.17;;
9948;SDS011;5013;51.840;8.276;2023-05-10T14:54:40;30.00;;;22.83;;
9948;SDS011;5013;51.840;8.276;2023-05-10T14:57:06;23.40;;;19.77;;
9948;SDS011;5013;51.840;8.276;2023-05-10T14:59:31;26.13;;;20.77;;
9948;SDS011;5013;51.840;8.276;2023-05-10T15:01:57;30.80;;;21.00;;
9948;SDS011;5013;51.840;8.276;2023-05-10T15:04:23;27.03;;;20.80;;
9948;SDS011;5013;51.840;8.276;2023-05-10T15:06:49;25.17;;;19.10;;
9948;SDS011;5013;51.840;8.276;2023-05-10T15:09:14;23.67;;;17.63;;
9948;SDS011;5013;51.840;8.276;2023-05-10T15:11:41;19.43;;;15.87;;
9948;SDS011;5013;51.840;8.276;2023-05-10T15:14:07;21.53;;;16.63;;
9948;SDS011;5013;51.840;8.276;2023-05-10T15:16:32;18.87;;;15.70;;
9948;SDS011;5013;51.840;8.276;2023-05-10T15:18:58;15.90;;;13.87;;
9948;SDS011;5013;51.840;8.276;2023-05-10T15:21:23;19.17;;;15.13;;
9948;SDS011;5013;51.840;8.276;2023-05-10T15:23:49;18.03;;;14.83;;
9948;SDS011;5013;51.840;8.276;2023-05-10T15:26:14;18.60;;;14.80;;